Time;durP1;ratioP1;P1;durP2;ratioP2;P2;SDS_P1;SDS_P2;PMS_P1;PMS_P2;Temp;Humidity;BMP_temperature;BMP_pressure;BME280_temperature;BME280_humidity;BME280_pressure;Samples;Min_cycle;Max_cycle;Signal;HPM_P1;HPM_P2
2021/06/21 00:02:18;;;;;;;15.93;11.77;;;23.20;99.90;;;;;;4928006;29;20276;-81
2021/06/21 00:04:43;;;;;;;14.70;11.57;;;23.30;99.90;;;;;;4924377;29;20312;-81
2021/06/21 00:07:09;;;;;;;17.73;12.40;;;23.10;99.90;;;;;;4938150;29;20226;-82
2021/06/21 00:09:35;;;;;;;15.07;12.83;;;22.90;99.90;;;;;;4939838;29;20188;-81
2021/06/21 00:12:00;;;;;;;16.90;12.47;;;22.90;99.90;;;;;;4937982;29;20629;-81
2021/06/21 00:14:26;;;;;;;12.73;10.90;;;22.80;99.90;;;;;;4924596;29;20203;-82
2021/06/21 00:16:51;;;;;;;15.30;12.33;;;22.80;99.90;;;;;;4932374;29;20617;-82
2021/06/21 00:19:17;;;;;;;17.67;13.23;;;22.90;99.90;;;;;;4941787;29;20241;-82
2021/06/21 00:21:43;;;;;;;16.63;13.27;;;22.90;99.90;;;;;;4959520;29;20541;-81
2021/06/21 00:24:08;;;;;;;14.97;12.17;;;22.80;99.90;;;;;;4935914;29;20218;-82
2021/06/21 00:26:34;;;;;;;16.30;12.47;;;22.70;99.90;;;;;;4936933;29;20194;-81
2021/06/21 00:29:00;;;;;;;15.07;12.83;;;22.90;99.90;;;;;;4935107;29;20638;-81
2021/06/21 00:31:25;;;;;;;14.90;12.17;;;22.90;99.90;;;;;;4932879;29;20285;-82
2021/06/21 00:33:51;;;;;;;18.47;12.20;;;22.80;99.90;;;;;;4939484;29;20283;-81
2021/06/21 00:36:17;;;;;;;15.20;12.27;;;22.80;99.90;;;;;;4934113;29;20203;-81
2021/06/21 00:38:42;;;;;;;17.00;12.93;;;22.80;99.90;;;;;;4925742;29;20222;-81
2021/06/21 00:41:08;;;;;;;13.60;11.70;;;22.60;99.90;;;;;;4934810;29;20191;-82
2021/06/21 00:43:34;;;;;;;13.40;11.70;;;22.70;99.90;;;;;;4936671;29;20194;-81
2021/06/21 00:46:01;;;;;;;16.80;12.10;;;22.80;99.90;;;;;;4930415;29;20198;-81
2021/06/21 00:48:27;;;;;;;14.07;11.33;;;22.80;99.90;;;;;;4938497;29;20183;-82
2021/06/21 00:50:52;;;;;;;14.00;11.97;;;22.80;99.90;;;;;;4934974;29;20211;-81
2021/06/21 00:53:19;;;;;;;14.43;10.83;;;22.80;99.90;;;;;;4935475;29;20184;-82
2021/06/21 00:55:46;;;;;;;14.33;10.90;;;22.80;99.90;;;;;;4937348;29;20202;-82
2021/06/21 00:58:12;;;;;;;14.30;11.57;;;22.70;99.90;;;;;;4955789;29;20270;-82
2021/06/21 01:00:37;;;;;;;13.27;10.57;;;22.80;99.90;;;;;;4935574;29;20234;-82
2021/06/21 01:03:04;;;;;;;13.00;10.57;;;22.90;99.90;;;;;;4927533;29;20573;-82
2021/06/21 01:05:34;;;;;;;13.30;11.10;;;22.80;99.90;;;;;;4935199;29;20184;-81
2021/06/21 01:08:01;;;;;;;12.27;10.83;;;22.80;99.90;;;;;;4922910;29;20210;-81
2021/06/21 01:10:27;;;;;;;14.23;11.07;;;22.80;99.90;;;;;;4924353;29;20212;-81
2021/06/21 01:13:11;;;;;;;12.83;11.07;;;22.80;99.90;;;;;;4924245;29;20251;-80
2021/06/21 01:15:54;;;;;;;12.47;10.43;;;22.70;99.90;;;;;;4921055;29;20278;-80
2021/06/21 01:18:27;;;;;;;16.50;11.13;;;22.80;99.90;;;;;;4932413;29;20282;-80
2021/06/21 01:21:23;;;;;;;14.17;10.50;;;22.80;99.90;;;;;;4927081;29;20195;-80
2021/06/21 01:24:08;;;;;;;14.10;11.27;;;22.80;99.90;;;;;;4950950;29;20719;-81
2021/06/21 01:26:45;;;;;;;13.43;10.87;;;22.80;99.90;;;;;;4953331;29;20250;-80
2021/06/21 01:29:49;;;;;;;12.40;11.10;;;22.60;99.90;;;;;;4954707;29;20186;-80
2021/06/21 01:32:18;;;;;;;12.73;10.87;;;22.60;99.90;;;;;;4923527;29;20195;-81
2021/06/21 01:34:49;;;;;;;12.60;10.87;;;22.60;99.90;;;;;;4939160;29;20575;-81
2021/06/21 01:37:18;;;;;;;15.73;11.63;;;22.60;99.90;;;;;;4948087;29;20671;-81
2021/06/21 01:39:48;;;;;;;11.73;10.33;;;22.50;99.90;;;;;;4921952;29;20249;-81
2021/06/21 01:42:18;;;;;;;12.13;10.27;;;22.50;99.90;;;;;;4937961;29;20663;-80
2021/06/21 01:44:47;;;;;;;12.00;10.70;;;22.50;99.90;;;;;;4921556;29;20191;-80
2021/06/21 01:47:16;;;;;;;11.83;10.03;;;22.50;99.90;;;;;;4937693;29;20632;-80
2021/06/21 01:49:45;;;;;;;11.67;10.13;;;22.40;99.90;;;;;;4928211;29;20176;-81
2021/06/21 01:52:14;;;;;;;11.97;10.67;;;22.50;99.90;;;;;;4952555;29;20206;-80
2021/06/21 01:54:47;;;;;;;10.60;9.50;;;22.40;99.90;;;;;;4932019;28;20239;-81
2021/06/21 01:57:14;;;;;;;9.90;8.90;;;22.30;99.90;;;;;;4934975;29;20742;-80
2021/06/21 01:59:41;;;;;;;12.97;9.27;;;22.20;99.90;;;;;;4936817;29;20216;-83
2021/06/21 02:02:08;;;;;;;10.03;8.83;;;22.20;99.90;;;;;;4946807;29;20195;-81
2021/06/21 02:04:36;;;;;;;9.83;8.83;;;22.10;99.90;;;;;;4938837;29;20183;-80
2021/06/21 02:07:02;;;;;;;9.93;8.80;;;22.10;99.90;;;;;;4919413;29;20191;-80
2021/06/21 02:09:29;;;;;;;12.97;8.67;;;22.20;99.90;;;;;;4938390;29;20230;-81
2021/06/21 02:11:56;;;;;;;9.97;8.50;;;22.10;99.90;;;;;;4954968;29;20320;-80
2021/06/21 02:14:26;;;;;;;11.67;9.13;;;22.10;99.90;;;;;;4937020;29;20187;-81
2021/06/21 02:16:54;;;;;;;9.70;8.30;;;22.30;99.90;;;;;;4951512;29;20195;-80
2021/06/21 02:19:22;;;;;;;12.00;8.50;;;22.30;99.90;;;;;;4953112;29;20596;-81
2021/06/21 02:21:49;;;;;;;11.03;8.67;;;22.20;99.90;;;;;;4950967;29;20183;-81
2021/06/21 02:24:17;;;;;;;9.53;8.47;;;22.20;99.90;;;;;;4937541;29;20190;-80
2021/06/21 02:26:44;;;;;;;10.17;8.53;;;22.20;99.90;;;;;;4933526;29;20781;-80
2021/06/21 02:29:10;;;;;;;10.03;8.30;;;22.00;99.90;;;;;;4933183;29;20188;-80
2021/06/21 02:31:36;;;;;;;9.73;8.47;;;22.00;99.90;;;;;;4936305;29;20210;-80
2021/06/21 02:34:02;;;;;;;9.93;8.60;;;21.90;99.90;;;;;;4935251;29;20201;-80
2021/06/21 02:36:27;;;;;;;13.40;8.57;;;22.00;99.90;;;;;;4928241;29;20632;-81
2021/06/21 02:38:54;;;;;;;10.70;8.40;;;22.10;99.90;;;;;;4932398;29;20636;-81
2021/06/21 02:41:20;;;;;;;9.57;8.27;;;22.20;99.90;;;;;;4932858;29;20191;-81
2021/06/21 02:43:46;;;;;;;10.67;8.13;;;22.00;99.90;;;;;;4938383;29;20187;-81
2021/06/21 02:46:12;;;;;;;11.10;9.03;;;22.10;99.90;;;;;;4933865;29;20195;-80
2021/06/21 02:48:39;;;;;;;9.70;8.17;;;22.20;99.90;;;;;;4923701;29;20184;-81
2021/06/21 02:51:08;;;;;;;10.03;8.43;;;22.10;99.90;;;;;;4936274;29;20651;-81
2021/06/21 02:53:58;;;;;;;9.73;7.87;;;22.00;99.90;;;;;;4955739;29;20642;-81
2021/06/21 02:56:43;;;;;;;9.57;8.67;;;21.90;99.90;;;;;;4935671;29;20190;-83
2021/06/21 02:59:14;;;;;;;8.43;7.63;;;22.00;99.90;;;;;;4929286;29;20635;-80
2021/06/21 03:01:53;;;;;;;9.00;7.97;;;22.00;99.90;;;;;;4925870;29;20831;-83
2021/06/21 03:04:22;;;;;;;8.50;7.70;;;22.10;99.90;;;;;;4921083;29;20183;-82
2021/06/21 03:06:51;;;;;;;8.30;7.47;;;22.00;99.90;;;;;;4934746;29;20346;-82
2021/06/21 03:09:21;;;;;;;9.00;8.10;;;21.80;99.90;;;;;;4934988;29;20201;-80
2021/06/21 03:11:52;;;;;;;10.13;8.07;;;21.70;99.90;;;;;;4920869;29;20219;-81
2021/06/21 03:14:24;;;;;;;9.70;8.03;;;21.70;99.90;;;;;;4949975;29;20692;-80
2021/06/21 03:16:52;;;;;;;8.70;6.93;;;21.90;99.90;;;;;;4927159;29;20574;-80
2021/06/21 03:19:18;;;;;;;7.70;6.90;;;21.90;99.90;;;;;;4950029;29;20268;-82
2021/06/21 03:21:45;;;;;;;7.83;6.47;;;21.90;99.90;;;;;;4920517;29;20218;-81
2021/06/21 03:24:13;;;;;;;8.27;7.30;;;21.80;99.90;;;;;;4936062;29;20194;-83
2021/06/21 03:26:39;;;;;;;7.20;6.50;;;21.90;99.90;;;;;;4926845;29;20213;-82
2021/06/21 03:29:17;;;;;;;7.80;6.03;;;21.80;99.90;;;;;;4922582;29;20254;-81
2021/06/21 03:31:46;;;;;;;6.00;5.37;;;21.70;99.90;;;;;;4929076;29;20332;-82
2021/06/21 03:34:17;;;;;;;8.30;5.70;;;21.50;99.90;;;;;;4929912;29;20202;-83
2021/06/21 03:36:43;;;;;;;5.30;4.80;;;21.50;99.90;;;;;;4926424;29;20242;-82
2021/06/21 03:39:09;;;;;;;6.40;4.33;;;21.40;99.90;;;;;;4950701;29;20709;-82
2021/06/21 03:41:36;;;;;;;5.70;5.20;;;21.30;99.90;;;;;;4934511;29;20209;-83
2021/06/21 03:44:03;;;;;;;5.97;4.73;;;21.30;99.90;;;;;;4936304;29;20377;-82
2021/06/21 03:46:29;;;;;;;6.23;4.90;;;21.20;99.90;;;;;;4940354;29;20544;-82
2021/06/21 03:48:55;;;;;;;6.93;4.77;;;21.10;99.90;;;;;;4926345;29;20194;-82
2021/06/21 03:51:22;;;;;;;5.67;4.70;;;21.10;99.90;;;;;;4932467;29;20229;-82
2021/06/21 03:53:49;;;;;;;6.00;5.00;;;21.10;99.90;;;;;;4929457;29;20277;-82
2021/06/21 03:56:14;;;;;;;5.97;4.53;;;21.00;99.90;;;;;;4936021;29;20188;-82
2021/06/21 03:58:45;;;;;;;4.53;4.13;;;21.00;99.90;;;;;;4930985;29;20189;-82
2021/06/21 04:01:11;;;;;;;5.07;4.57;;;21.10;99.90;;;;;;4931569;29;20193;-82
2021/06/21 04:03:37;;;;;;;6.17;4.30;;;21.10;99.90;;;;;;4925546;29;20190;-82
2021/06/21 04:06:03;;;;;;;5.40;4.30;;;21.00;99.90;;;;;;4931125;29;20203;-82
2021/06/21 04:08:29;;;;;;;5.33;4.30;;;20.90;99.90;;;;;;4921515;29;20232;-82
2021/06/21 04:10:56;;;;;;;4.10;3.70;;;20.90;99.90;;;;;;4938436;29;20221;-83
2021/06/21 04:13:22;;;;;;;6.37;4.23;;;21.00;99.90;;;;;;4942649;29;20544;-82
2021/06/21 04:15:49;;;;;;;5.33;4.03;;;20.90;99.90;;;;;;4931841;29;20701;-83
2021/06/21 04:18:17;;;;;;;5.03;4.13;;;20.90;99.90;;;;;;4931479;29;20557;-82
2021/06/21 04:20:44;;;;;;;3.53;3.23;;;21.00;99.90;;;;;;4934696;29;20181;-83
2021/06/21 04:23:11;;;;;;;3.93;3.47;;;20.90;99.90;;;;;;4927010;29;20199;-82
2021/06/21 04:25:37;;;;;;;3.47;3.07;;;20.80;99.90;;;;;;4929255;29;20702;-82
2021/06/21 04:28:05;;;;;;;6.57;3.20;;;20.90;99.90;;;;;;4925709;29;20217;-82
2021/06/21 04:30:31;;;;;;;4.80;3.50;;;20.60;99.90;;;;;;4937709;29;20230;-82
2021/06/21 04:32:56;;;;;;;4.67;3.50;;;20.70;99.90;;;;;;4949574;29;20190;-83
2021/06/21 04:35:25;;;;;;;5.83;3.63;;;20.50;99.90;;;;;;4921259;29;20297;-83
2021/06/21 04:37:50;;;;;;;4.27;3.87;;;20.50;99.90;;;;;;4939525;29;20201;-83
2021/06/21 04:40:19;;;;;;;4.03;3.63;;;20.50;99.90;;;;;;4932400;29;20182;-83
2021/06/21 04:42:45;;;;;;;4.40;4.00;;;20.50;99.90;;;;;;4933569;29;20194;-82
2021/06/21 04:45:12;;;;;;;3.43;3.13;;;20.50;99.90;;;;;;4956044;29;20192;-82
2021/06/21 04:47:38;;;;;;;4.37;3.37;;;20.60;99.90;;;;;;4952839;29;20317;-83
2021/06/21 04:50:08;;;;;;;4.00;3.60;;;20.70;99.90;;;;;;4957023;29;20696;-82
2021/06/21 04:52:35;;;;;;;3.97;3.57;;;20.70;99.90;;;;;;4927002;29;20276;-82
2021/06/21 04:55:03;;;;;;;7.77;4.27;;;20.90;99.90;;;;;;4937113;29;20332;-82
2021/06/21 04:57:29;;;;;;;7.60;4.50;;;20.70;99.90;;;;;;4937020;29;20280;-83
2021/06/21 04:59:55;;;;;;;4.40;3.97;;;20.60;99.90;;;;;;4936164;29;20272;-82
2021/06/21 05:02:21;;;;;;;5.43;4.33;;;20.60;99.90;;;;;;4935257;29;20190;-82
2021/06/21 05:04:46;;;;;;;4.40;3.90;;;20.70;99.90;;;;;;4931757;29;20192;-82
2021/06/21 05:07:12;;;;;;;8.43;4.50;;;20.70;99.90;;;;;;4933166;29;20270;-82
2021/06/21 05:09:38;;;;;;;7.33;4.93;;;20.60;99.90;;;;;;4939468;29;20252;-82
2021/06/21 05:12:04;;;;;;;9.13;4.40;;;20.60;99.90;;;;;;4927382;29;20231;-83
2021/06/21 05:14:29;;;;;;;6.77;4.87;;;20.60;99.90;;;;;;4951707;29;20189;-83
2021/06/21 05:16:55;;;;;;;4.97;4.47;;;20.60;99.90;;;;;;4933412;29;20716;-81
2021/06/21 05:19:21;;;;;;;6.57;4.77;;;20.60;99.90;;;;;;4951228;29;20196;-82
2021/06/21 05:21:46;;;;;;;5.07;4.30;;;20.40;99.90;;;;;;4905798;29;20196;-81
2021/06/21 05:24:12;;;;;;;5.00;4.50;;;20.50;99.90;;;;;;4932592;29;20256;-81
2021/06/21 05:26:38;;;;;;;5.77;4.63;;;20.50;99.90;;;;;;4928163;29;20526;-80
2021/06/21 05:29:03;;;;;;;6.60;4.50;;;20.60;99.90;;;;;;4944863;29;20197;-81
2021/06/21 05:31:29;;;;;;;5.97;4.63;;;20.50;99.90;;;;;;4929149;29;20585;-79
2021/06/21 05:33:54;;;;;;;5.10;4.50;;;20.50;99.90;;;;;;4934215;29;20200;-80
2021/06/21 05:36:20;;;;;;;6.37;4.50;;;20.40;99.90;;;;;;4937788;29;20195;-80
2021/06/21 05:38:46;;;;;;;5.33;4.40;;;20.40;99.90;;;;;;4922005;29;20184;-80
2021/06/21 05:41:11;;;;;;;5.77;4.00;;;20.30;99.90;;;;;;4924373;29;20705;-79
2021/06/21 05:43:37;;;;;;;6.03;4.17;;;20.20;99.90;;;;;;4934250;29;20184;-80
2021/06/21 05:46:03;;;;;;;4.13;3.70;;;20.30;99.90;;;;;;4929567;29;20239;-80
2021/06/21 05:48:29;;;;;;;4.10;3.70;;;20.30;99.90;;;;;;4933302;29;20179;-80
2021/06/21 05:50:54;;;;;;;4.20;3.80;;;20.20;99.90;;;;;;4917725;29;20209;-80
2021/06/21 05:53:20;;;;;;;4.83;3.90;;;20.30;99.90;;;;;;4936493;29;20556;-80
2021/06/21 05:55:45;;;;;;;5.03;4.20;;;20.40;99.90;;;;;;4931877;29;20197;-80
2021/06/21 05:58:11;;;;;;;4.90;3.43;;;20.30;99.90;;;;;;4934477;29;20548;-80
2021/06/21 06:00:37;;;;;;;5.80;3.27;;;20.20;99.90;;;;;;4935468;29;20669;-80
2021/06/21 06:03:02;;;;;;;2.93;2.63;;;20.10;99.90;;;;;;4930916;29;20194;-80
2021/06/21 06:05:29;;;;;;;3.80;3.00;;;20.20;99.90;;;;;;4925355;29;20188;-81
2021/06/21 06:07:55;;;;;;;2.53;2.30;;;20.20;99.90;;;;;;4925795;29;20186;-81
2021/06/21 06:10:21;;;;;;;2.43;2.20;;;20.20;99.90;;;;;;4919533;29;20301;-82
2021/06/21 06:12:47;;;;;;;2.40;2.20;;;20.20;99.90;;;;;;4931120;29;20194;-82
2021/06/21 06:15:14;;;;;;;3.80;3.00;;;20.40;99.90;;;;;;4915136;29;20192;-82
2021/06/21 06:17:40;;;;;;;3.53;2.73;;;20.20;99.90;;;;;;4924118;29;20202;-82
2021/06/21 06:20:07;;;;;;;3.47;3.17;;;20.10;99.90;;;;;;4928227;29;20187;-81
2021/06/21 06:22:33;;;;;;;4.87;3.00;;;20.10;99.90;;;;;;4948746;29;20188;-82
2021/06/21 06:24:58;;;;;;;3.20;2.63;;;20.10;99.90;;;;;;4933840;29;20186;-81
2021/06/21 06:27:25;;;;;;;2.80;2.50;;;20.20;99.90;;;;;;4933771;29;20200;-81
2021/06/21 06:29:51;;;;;;;2.97;2.70;;;20.20;99.90;;;;;;4933102;29;20599;-82
2021/06/21 06:32:17;;;;;;;3.87;2.60;;;20.40;99.90;;;;;;4933521;29;20214;-82
2021/06/21 06:34:42;;;;;;;3.23;2.87;;;20.40;99.90;;;;;;4933796;29;20197;-81
2021/06/21 06:37:10;;;;;;;3.87;3.27;;;20.50;99.90;;;;;;4929364;29;20187;-81
2021/06/21 06:39:36;;;;;;;2.90;2.70;;;20.60;99.90;;;;;;4944228;29;20183;-82
2021/06/21 06:42:02;;;;;;;6.43;3.20;;;20.50;99.90;;;;;;4931243;29;20635;-81
2021/06/21 06:44:27;;;;;;;5.23;3.40;;;20.40;99.90;;;;;;4928245;29;20189;-81
2021/06/21 06:46:53;;;;;;;11.47;3.60;;;20.70;99.90;;;;;;4927787;29;20663;-82
2021/06/21 06:49:19;;;;;;;5.47;3.77;;;20.60;99.90;;;;;;4922708;29;20315;-82
2021/06/21 06:51:46;;;;;;;4.83;3.70;;;20.60;99.90;;;;;;4932628;29;20641;-81
2021/06/21 06:57:00;;;;;;;3.97;3.60;;;20.40;99.90;;;;;;4945199;29;20197;-82
2021/06/21 06:59:30;;;;;;;4.00;3.57;;;20.40;99.90;;;;;;4921954;29;20181;-82
2021/06/21 07:01:57;;;;;;;5.07;3.43;;;20.40;99.90;;;;;;4922567;29;20276;-81
2021/06/21 07:04:23;;;;;;;3.73;3.40;;;20.50;99.90;;;;;;4924301;29;20654;-81
2021/06/21 07:06:49;;;;;;;4.30;3.60;;;20.40;99.90;;;;;;4936444;29;20688;-82
2021/06/21 07:09:15;;;;;;;4.90;3.57;;;20.30;99.90;;;;;;4952439;29;20180;-81
2021/06/21 07:11:41;;;;;;;7.83;4.03;;;20.40;99.90;;;;;;4926344;29;20716;-82
2021/06/21 07:14:08;;;;;;;5.23;3.73;;;20.50;99.90;;;;;;4947364;29;20199;-81
2021/06/21 07:16:34;;;;;;;4.13;3.73;;;20.40;99.90;;;;;;4928118;29;20552;-81
2021/06/21 07:19:00;;;;;;;3.60;3.30;;;20.20;99.90;;;;;;4939609;29;20195;-82
2021/06/21 07:21:26;;;;;;;4.90;3.13;;;20.20;99.90;;;;;;4922744;29;20189;-82
2021/06/21 07:23:52;;;;;;;3.33;3.00;;;20.10;99.90;;;;;;4922936;29;20665;-82
2021/06/21 07:26:18;;;;;;;3.67;2.60;;;20.00;99.90;;;;;;4934411;29;20238;-81
2021/06/21 07:28:44;;;;;;;4.43;2.70;;;20.00;99.90;;;;;;4930099;29;20191;-81
2021/06/21 07:31:10;;;;;;;4.63;2.10;;;19.80;99.90;;;;;;4948549;29;20209;-81
2021/06/21 07:33:36;;;;;;;3.20;2.80;;;19.70;99.90;;;;;;4923689;29;20231;-81
2021/06/21 07:36:02;;;;;;;3.60;2.60;;;19.60;99.90;;;;;;4916018;29;20915;-81
2021/06/21 07:38:27;;;;;;;2.43;2.23;;;19.20;99.90;;;;;;4923965;29;20661;-80
2021/06/21 07:40:53;;;;;;;2.90;2.43;;;19.20;99.90;;;;;;4929095;29;20838;-81
2021/06/21 07:43:19;;;;;;;3.33;2.10;;;19.10;99.90;;;;;;4920146;29;20193;-80
2021/06/21 07:45:45;;;;;;;4.60;2.10;;;18.90;99.90;;;;;;4913503;29;20191;-80
2021/06/21 07:48:11;;;;;;;3.23;2.20;;;18.80;99.90;;;;;;4921534;29;20175;-82
2021/06/21 07:50:37;;;;;;;2.53;2.07;;;18.90;99.90;;;;;;4920912;29;20747;-82
2021/06/21 07:53:06;;;;;;;2.10;1.83;;;19.00;99.90;;;;;;4921661;29;20239;-81
2021/06/21 07:55:32;;;;;;;3.37;1.90;;;19.10;99.90;;;;;;4927930;29;20211;-81
2021/06/21 07:57:58;;;;;;;2.53;1.87;;;19.40;99.90;;;;;;4927675;29;20198;-82
2021/06/21 08:00:25;;;;;;;2.67;1.80;;;19.50;99.90;;;;;;4925838;29;20180;-81
2021/06/21 08:02:52;;;;;;;2.20;1.67;;;19.70;99.90;;;;;;4942717;29;20184;-81
2021/06/21 08:05:19;;;;;;;2.03;1.57;;;19.70;99.90;;;;;;4933552;29;20184;-82
2021/06/21 08:07:45;;;;;;;3.63;2.10;;;20.00;99.90;;;;;;4935249;29;20189;-82
2021/06/21 08:10:11;;;;;;;2.43;1.90;;;20.20;99.90;;;;;;4938664;29;20201;-81
2021/06/21 08:12:38;;;;;;;3.10;1.80;;;20.40;99.90;;;;;;4929953;29;20190;-82
2021/06/21 08:15:08;;;;;;;5.83;1.90;;;20.50;99.90;;;;;;4939616;29;20179;-82
2021/06/21 08:17:34;;;;;;;2.77;1.63;;;20.80;99.90;;;;;;4935760;29;20273;-82
2021/06/21 08:20:00;;;;;;;2.07;1.50;;;20.90;99.90;;;;;;4946633;29;20660;-82
2021/06/21 08:22:25;;;;;;;2.00;1.47;;;21.00;99.90;;;;;;4938368;29;20569;-82
2021/06/21 08:24:51;;;;;;;2.57;1.70;;;21.20;99.90;;;;;;4931898;29;20194;-82
2021/06/21 08:27:18;;;;;;;2.73;1.63;;;21.30;99.90;;;;;;4953851;29;20186;-82
2021/06/21 08:29:44;;;;;;;1.93;1.73;;;21.30;99.90;;;;;;4950898;29;20652;-83
2021/06/21 08:32:11;;;;;;;2.70;1.70;;;21.20;99.90;;;;;;4945460;29;20234;-82
2021/06/21 08:34:37;;;;;;;3.07;1.67;;;21.20;99.90;;;;;;4934155;29;20218;-82
2021/06/21 08:37:03;;;;;;;1.57;1.47;;;21.30;99.90;;;;;;4929287;29;20179;-82
2021/06/21 08:39:29;;;;;;;3.60;1.90;;;21.40;99.90;;;;;;4935034;29;20174;-82
2021/06/21 08:41:56;;;;;;;4.80;1.90;;;21.40;99.90;;;;;;4927309;29;20190;-82
2021/06/21 08:44:22;;;;;;;2.30;2.10;;;21.50;99.90;;;;;;4932658;29;20186;-82
2021/06/21 08:46:50;;;;;;;2.70;1.97;;;21.50;99.90;;;;;;4931319;29;20552;-82
2021/06/21 08:49:17;;;;;;;2.93;2.30;;;21.30;99.90;;;;;;4933319;29;20252;-82
2021/06/21 08:51:43;;;;;;;4.23;2.23;;;21.30;99.90;;;;;;4926091;29;20679;-82
2021/06/21 08:54:09;;;;;;;2.30;2.10;;;21.30;99.90;;;;;;4924206;29;20198;-83
2021/06/21 08:56:34;;;;;;;4.07;2.27;;;21.30;99.90;;;;;;4932388;29;20434;-82
2021/06/21 08:59:07;;;;;;;1.90;1.80;;;21.30;99.90;;;;;;4931654;29;20561;-82
2021/06/21 09:01:40;;;;;;;3.03;1.77;;;21.50;99.90;;;;;;4929967;29;20193;-82
2021/06/21 09:04:09;;;;;;;2.50;2.30;;;21.70;99.90;;;;;;4930737;29;20188;-83
2021/06/21 09:06:38;;;;;;;3.47;2.23;;;22.00;99.90;;;;;;4934129;29;20170;-82
2021/06/21 09:09:05;;;;;;;3.73;2.10;;;22.00;99.90;;;;;;4931479;29;20195;-83
2021/06/21 09:11:46;;;;;;;2.10;1.90;;;22.00;99.90;;;;;;4929427;29;20217;-83
2021/06/21 09:14:30;;;;;;;2.70;2.37;;;22.10;99.90;;;;;;4935840;29;20187;-83
2021/06/21 09:17:02;;;;;;;1.80;1.70;;;22.10;99.90;;;;;;4932124;29;20297;-83
2021/06/21 09:19:29;;;;;;;2.63;1.57;;;22.10;99.90;;;;;;4929445;29;20657;-82
2021/06/21 09:21:55;;;;;;;14.07;3.23;;;22.00;99.90;;;;;;4922839;29;20194;-83
2021/06/21 09:24:29;;;;;;;2.10;2.00;;;21.80;99.90;;;;;;4931928;29;20277;-83
2021/06/21 09:27:00;;;;;;;2.23;2.03;;;21.70;99.90;;;;;;4935073;29;20183;-83
2021/06/21 09:29:32;;;;;;;2.33;2.13;;;21.70;99.90;;;;;;4932527;29;20666;-83
2021/06/21 09:31:59;;;;;;;2.63;2.33;;;21.90;99.90;;;;;;4921972;29;20220;-83
2021/06/21 09:34:26;;;;;;;2.23;2.03;;;22.10;99.90;;;;;;4928844;29;20205;-82
2021/06/21 09:36:53;;;;;;;3.47;2.13;;;22.00;99.90;;;;;;4941905;29;20290;-82
2021/06/21 09:39:24;;;;;;;3.13;2.20;;;21.70;99.90;;;;;;4924018;29;20195;-83
2021/06/21 09:42:09;;;;;;;2.03;1.80;;;21.60;99.90;;;;;;4932609;29;20222;-82
2021/06/21 09:44:56;;;;;;;3.20;1.90;;;21.70;99.90;;;;;;4922507;29;20190;-83
2021/06/21 09:47:39;;;;;;;2.33;2.07;;;21.60;99.90;;;;;;4931971;29;20257;-82
2021/06/21 09:50:07;;;;;;;3.60;2.27;;;21.50;99.90;;;;;;4931346;29;20190;-81
2021/06/21 09:52:36;;;;;;;4.20;2.60;;;21.60;99.90;;;;;;4935509;29;20204;-83
2021/06/21 09:55:11;;;;;;;4.70;3.23;;;21.40;99.90;;;;;;4927243;29;20183;-83
2021/06/21 09:57:37;;;;;;;3.40;3.10;;;21.40;99.90;;;;;;4950915;29;20609;-82
2021/06/21 10:00:12;;;;;;;4.43;3.30;;;21.50;99.90;;;;;;4951080;29;20555;-83
2021/06/21 10:02:39;;;;;;;5.00;3.83;;;21.40;99.90;;;;;;4944892;29;20182;-82
2021/06/21 10:05:20;;;;;;;5.23;4.03;;;21.40;99.90;;;;;;4930521;29;20185;-82
2021/06/21 10:07:46;;;;;;;4.30;3.90;;;21.60;99.90;;;;;;4932700;29;20280;-82
2021/06/21 10:10:18;;;;;;;5.33;4.30;;;21.40;99.90;;;;;;4932976;29;20696;-82
2021/06/21 10:12:44;;;;;;;9.87;5.47;;;21.30;99.90;;;;;;4934117;29;20192;-82
2021/06/21 10:15:11;;;;;;;6.07;4.90;;;21.20;99.90;;;;;;4938268;29;20186;-82
2021/06/21 10:17:38;;;;;;;7.00;5.33;;;21.30;99.90;;;;;;4944963;28;20300;-82
2021/06/21 10:20:06;;;;;;;6.13;5.03;;;21.30;99.90;;;;;;4923468;29;20191;-82
2021/06/21 10:22:33;;;;;;;6.00;5.37;;;21.30;99.90;;;;;;4933978;29;20181;-82
2021/06/21 10:24:59;;;;;;;6.93;5.40;;;21.30;99.90;;;;;;4924173;29;20617;-83
2021/06/21 10:27:27;;;;;;;5.57;5.07;;;21.40;99.90;;;;;;4923349;29;20273;-83
2021/06/21 10:29:57;;;;;;;5.83;4.33;;;21.30;99.90;;;;;;4923347;29;20216;-82
2021/06/21 10:32:25;;;;;;;6.70;4.53;;;21.40;99.90;;;;;;4943472;29;20191;-82
2021/06/21 10:34:52;;;;;;;6.40;5.20;;;21.50;99.90;;;;;;4937005;29;20182;-82
2021/06/21 10:37:22;;;;;;;5.90;5.30;;;21.80;99.90;;;;;;4933857;29;20190;-82
2021/06/21 10:39:50;;;;;;;6.47;4.50;;;21.80;99.90;;;;;;4940503;29;20201;-83
2021/06/21 10:42:17;;;;;;;5.33;4.30;;;21.60;99.90;;;;;;4922040;29;20191;-82
2021/06/21 10:44:54;;;;;;;5.57;4.40;;;21.60;99.90;;;;;;4921955;29;20192;-82
2021/06/21 10:47:36;;;;;;;5.50;4.17;;;21.80;99.90;;;;;;4923196;29;20273;-82
2021/06/21 10:50:18;;;;;;;4.67;4.27;;;21.80;99.90;;;;;;4920635;29;20246;-81
2021/06/21 10:52:51;;;;;;;5.67;3.73;;;21.80;99.90;;;;;;4931148;29;20208;-82
2021/06/21 10:57:51;;;;;;;4.03;3.63;;;21.70;99.90;;;;;;4947149;29;20177;-82
2021/06/21 11:00:22;;;;;;;4.33;3.83;;;21.80;99.90;;;;;;4927975;29;20194;-82
2021/06/21 11:02:48;;;;;;;4.53;3.90;;;21.60;99.90;;;;;;4926833;29;20221;-82
2021/06/21 11:05:40;;;;;;;5.77;3.73;;;21.50;99.90;;;;;;4926303;29;20190;-82
2021/06/21 11:08:13;;;;;;;4.40;3.97;;;21.40;99.90;;;;;;4926729;29;20183;-82
2021/06/21 11:10:39;;;;;;;4.37;3.97;;;21.40;99.90;;;;;;4922655;29;20268;-82
2021/06/21 11:13:37;;;;;;;6.13;4.80;;;21.50;99.90;;;;;;4928664;29;20730;-82
2021/06/21 11:16:32;;;;;;;5.80;4.90;;;21.40;99.90;;;;;;4892597;29;20225;-82
2021/06/21 11:19:20;;;;;;;5.20;4.60;;;21.40;99.90;;;;;;4911057;29;20644;-81
2021/06/21 11:22:06;;;;;;;5.60;4.93;;;21.50;99.90;;;;;;4937860;29;20201;-82
2021/06/21 11:24:43;;;;;;;5.23;4.70;;;21.50;99.90;;;;;;4932322;29;20194;-82
2021/06/21 11:27:11;;;;;;;6.23;4.77;;;21.50;99.90;;;;;;4920725;29;20266;-82
2021/06/21 11:29:46;;;;;;;4.60;4.20;;;21.50;99.90;;;;;;4929484;29;20187;-82
2021/06/21 11:32:13;;;;;;;4.47;3.87;;;21.50;99.90;;;;;;4934189;29;20247;-82
2021/06/21 11:35:02;;;;;;;4.83;4.23;;;21.60;99.90;;;;;;4925125;29;20174;-81
2021/06/21 11:37:41;;;;;;;5.37;4.20;;;21.50;99.90;;;;;;4918925;29;20246;-82
2021/06/21 11:40:14;;;;;;;5.13;4.60;;;21.50;99.90;;;;;;4942969;29;20544;-82
2021/06/21 11:42:40;;;;;;;4.70;4.30;;;21.60;99.90;;;;;;4923229;29;20194;-81
2021/06/21 11:45:07;;;;;;;5.47;4.93;;;21.50;99.90;;;;;;4921468;29;20176;-82
2021/06/21 11:47:34;;;;;;;4.77;4.27;;;21.40;99.90;;;;;;4943568;29;20195;-82
2021/06/21 11:50:15;;;;;;;4.83;4.43;;;21.30;99.90;;;;;;4948273;29;20185;-82
2021/06/21 11:52:42;;;;;;;5.23;4.27;;;21.30;99.90;;;;;;4936270;29;20194;-82
2021/06/21 11:55:18;;;;;;;5.03;4.20;;;21.30;99.90;;;;;;4937983;29;20615;-82
2021/06/21 11:57:47;;;;;;;4.90;4.07;;;21.60;99.90;;;;;;4931987;29;20205;-82
2021/06/21 12:00:15;;;;;;;5.37;4.70;;;21.40;99.90;;;;;;4926868;29;20667;-82
2021/06/21 12:02:41;;;;;;;4.90;4.33;;;21.50;99.90;;;;;;4935644;29;20182;-82
2021/06/21 12:05:10;;;;;;;7.40;4.90;;;21.30;99.90;;;;;;4920091;29;20232;-82
2021/06/21 12:07:41;;;;;;;6.87;5.53;;;21.20;99.90;;;;;;4932669;29;20186;-83
2021/06/21 12:10:07;;;;;;;6.07;5.43;;;21.30;99.90;;;;;;4921364;29;20178;-82
2021/06/21 12:12:35;;;;;;;6.10;5.50;;;21.30;99.90;;;;;;4922164;29;20199;-82
2021/06/21 12:15:05;;;;;;;8.67;5.27;;;21.40;99.90;;;;;;4929875;29;20602;-82
2021/06/21 12:17:32;;;;;;;6.97;6.27;;;21.30;99.90;;;;;;4924054;29;20544;-82
2021/06/21 12:20:18;;;;;;;9.17;5.77;;;21.30;99.90;;;;;;4931450;29;20185;-83
2021/06/21 12:23:08;;;;;;;6.90;6.20;;;21.20;99.90;;;;;;4919295;29;20189;-82
2021/06/21 12:25:39;;;;;;;7.23;5.70;;;21.20;99.90;;;;;;4926107;29;20648;-82
2021/06/21 12:28:17;;;;;;;6.73;6.10;;;21.30;99.90;;;;;;4935678;29;20696;-80
2021/06/21 12:30:50;;;;;;;6.93;5.97;;;21.40;99.90;;;;;;4935704;29;20256;-81
2021/06/21 12:33:36;;;;;;;5.80;5.20;;;21.40;99.90;;;;;;4933418;29;20679;-82
2021/06/21 12:36:09;;;;;;;6.07;5.23;;;21.50;99.90;;;;;;4937075;29;20186;-82
2021/06/21 12:38:38;;;;;;;6.60;5.90;;;21.60;99.90;;;;;;4945084;29;20172;-82
2021/06/21 12:41:33;;;;;;;7.57;5.67;;;21.80;99.90;;;;;;4926125;29;20187;-82
2021/06/21 12:44:01;;;;;;;5.80;5.20;;;21.80;99.90;;;;;;4929853;29;20230;-82
2021/06/21 12:46:36;;;;;;;6.43;5.20;;;22.00;99.90;;;;;;4940590;29;20549;-83
2021/06/21 12:49:07;;;;;;;5.23;4.73;;;22.30;99.90;;;;;;4932920;29;20182;-81
2021/06/21 12:51:34;;;;;;;6.13;4.70;;;22.50;99.90;;;;;;4939050;29;20232;-79
2021/06/21 12:54:00;;;;;;;4.97;4.47;;;22.60;99.90;;;;;;4940447;29;20281;-82
2021/06/21 12:56:33;;;;;;;5.83;5.20;;;22.70;99.90;;;;;;4950290;29;20216;-83
2021/06/21 12:59:02;;;;;;;5.50;5.00;;;22.80;99.90;;;;;;4937657;29;20273;-82